sensor_id;sensor_type;location;lat;lon;timestamp;pressure;altitude;pressure_sealevel;temperature;humidity
48942;BME280;35340;52.378;4.648;2023-02-28T00:02:52;103312.69;;;16.77;49.94
48942;BME280;35340;52.378;4.648;2023-02-28T00:14:34;103313.53;;;16.76;49.77
48942;BME280;35340;52.378;4.648;2023-02-28T00:17:00;103313.44;;;16.73;49.56
48942;BME280;35340;52.378;4.648;2023-02-28T00:19:25;103315.19;;;16.74;49.40
48942;BME280;35340;52.378;4.648;2023-02-28T00:21:50;103316.06;;;16.74;49.91
48942;BME280;35340;52.378;4.648;2023-02-28T00:24:16;103310.81;;;16.73;49.40
48942;BME280;35340;52.378;4.648;2023-02-28T00:26:41;103307.28;;;16.71;49.50
48942;BME280;35340;52.378;4.648;2023-02-28T00:29:07;103312.53;;;16.72;49.26
48942;BME280;35340;52.378;4.648;2023-02-28T00:31:32;103315.13;;;16.72;49.36
48942;BME280;35340;52.378;4.648;2023-02-28T00:33:57;103312.50;;;16.71;49.42
48942;BME280;35340;52.378;4.648;2023-02-28T00:36:23;103308.16;;;16.71;49.53
48942;BME280;35340;52.378;4.648;2023-02-28T00:38:48;103302.91;;;16.70;49.48
48942;BME280;35340;52.378;4.648;2023-02-28T00:41:14;103303.81;;;16.70;49.10
48942;BME280;35340;52.378;4.648;2023-02-28T00:43:39;103305.50;;;16.70;49.41
48942;BME280;35340;52.378;4.648;2023-02-28T00:46:06;103302.09;;;16.71;49.07
48942;BME280;35340;52.378;4.648;2023-02-28T00:48:32;103302.91;;;16.70;49.33
48942;BME280;35340;52.378;4.648;2023-02-28T00:50:57;103303.75;;;16.69;49.62
48942;BME280;35340;52.378;4.648;2023-02-28T00:53:23;103299.38;;;16.67;49.34
48942;BME280;35340;52.378;4.648;2023-02-28T00:55:49;103295.94;;;16.69;49.24
48942;BME280;35340;52.378;4.648;2023-02-28T00:58:15;103293.34;;;16.69;49.19
48942;BME280;35340;52.378;4.648;2023-02-28T01:00:40;103298.56;;;16.69;49.17
48942;BME280;35340;52.378;4.648;2023-02-28T01:03:05;103308.94;;;16.69;49.25
48942;BME280;35340;52.378;4.648;2023-02-28T01:05:31;103308.91;;;16.67;49.30
48942;BME280;35340;52.378;4.648;2023-02-28T01:07:56;103313.31;;;16.70;49.51
48942;BME280;35340;52.378;4.648;2023-02-28T01:10:22;103311.56;;;16.69;49.07
48942;BME280;35340;52.378;4.648;2023-02-28T01:12:47;103304.53;;;16.66;49.19
48942;BME280;35340;52.378;4.648;2023-02-28T01:15:12;103306.28;;;16.67;49.25
48942;BME280;35340;52.378;4.648;2023-02-28T01:17:38;103301.94;;;16.66;49.31
48942;BME280;35340;52.378;4.648;2023-02-28T01:20:04;103298.44;;;16.65;49.28
48942;BME280;35340;52.378;4.648;2023-02-28T01:22:29;103302.81;;;16.66;49.12
48942;BME280;35340;52.378;4.648;2023-02-28T01:24:55;103294.13;;;16.66;48.96
48942;BME280;35340;52.378;4.648;2023-02-28T01:27:20;103297.63;;;16.66;49.38
48942;BME280;35340;52.378;4.648;2023-02-28T01:29:46;103286.34;;;16.66;49.13
48942;BME280;35340;52.378;4.648;2023-02-28T01:32:11;103285.41;;;16.64;49.23
48942;BME280;35340;52.378;4.648;2023-02-28T01:34:36;103284.56;;;16.65;49.14
48942;BME280;35340;52.378;4.648;2023-02-28T01:37:02;103279.34;;;16.65;49.11
48942;BME280;35340;52.378;4.648;2023-02-28T01:39:28;103280.16;;;16.62;48.79
48942;BME280;35340;52.378;4.648;2023-02-28T01:41:54;103283.69;;;16.64;48.91
48942;BME280;35340;52.378;4.648;2023-02-28T01:47:05;103281.09;;;16.64;49.17
48942;BME280;35340;52.378;4.648;2023-02-28T01:49:31;103286.28;;;16.64;48.87
48942;BME280;35340;52.378;4.648;2023-02-28T01:51:56;103285.41;;;16.64;48.81
48942;BME280;35340;52.378;4.648;2023-02-28T01:54:25;103274.94;;;16.62;48.92
48942;BME280;35340;52.378;4.648;2023-02-28T01:57:18;103280.22;;;16.64;49.09
48942;BME280;35340;52.378;4.648;2023-02-28T01:59:56;103275.00;;;16.64;48.88
48942;BME280;35340;52.378;4.648;2023-02-28T02:02:24;103277.63;;;16.65;49.02
48942;BME280;35340;52.378;4.648;2023-02-28T02:05:29;103269.84;;;16.65;49.10
48942;BME280;35340;52.378;4.648;2023-02-28T02:08:02;103274.22;;;16.66;48.95
48942;BME280;35340;52.378;4.648;2023-02-28T02:10:35;103272.44;;;16.65;49.18
48942;BME280;35340;52.378;4.648;2023-02-28T02:26:48;103245.75;;;16.71;49.14
48942;BME280;35340;52.378;4.648;2023-02-28T02:34:40;103251.84;;;16.72;49.16
48942;BME280;35340;52.378;4.648;2023-02-28T02:37:30;103245.81;;;16.73;49.06
48942;BME280;35340;52.378;4.648;2023-02-28T02:45:55;103247.56;;;16.74;49.06
48942;BME280;35340;52.378;4.648;2023-02-28T02:48:25;103246.75;;;16.75;49.19
48942;BME280;35340;52.378;4.648;2023-02-28T02:50:57;103241.50;;;16.73;49.16
48942;BME280;35340;52.378;4.648;2023-02-28T03:03:45;103251.97;;;16.76;49.27
48942;BME280;35340;52.378;4.648;2023-02-28T03:08:46;103251.97;;;16.75;49.00
48942;BME280;35340;52.378;4.648;2023-02-28T03:11:13;103247.56;;;16.74;49.12
48942;BME280;35340;52.378;4.648;2023-02-28T03:22:30;103244.09;;;16.73;49.19
48942;BME280;35340;52.378;4.648;2023-02-28T03:25:13;103249.25;;;16.72;49.22
48942;BME280;35340;52.378;4.648;2023-02-28T03:28:03;103244.88;;;16.71;49.18
48942;BME280;35340;52.378;4.648;2023-02-28T03:30:50;103241.44;;;16.72;49.31
48942;BME280;35340;52.378;4.648;2023-02-28T03:33:21;103244.88;;;16.71;48.92
48942;BME280;35340;52.378;4.648;2023-02-28T03:36:09;103242.31;;;16.72;49.33
48942;BME280;35340;52.378;4.648;2023-02-28T03:38:48;103242.28;;;16.71;49.31
48942;BME280;35340;52.378;4.648;2023-02-28T03:41:20;103240.56;;;16.71;49.31
48942;BME280;35340;52.378;4.648;2023-02-28T03:44:11;103243.09;;;16.70;49.36
48942;BME280;35340;52.378;4.648;2023-02-28T03:46:46;103243.16;;;16.71;49.49
48942;BME280;35340;52.378;4.648;2023-02-28T03:49:20;103244.81;;;16.69;49.25
48942;BME280;35340;52.378;4.648;2023-02-28T03:51:49;103245.69;;;16.68;49.33
48942;BME280;35340;52.378;4.648;2023-02-28T03:54:19;103251.75;;;16.69;49.18
48942;BME280;35340;52.378;4.648;2023-02-28T03:56:59;103250.03;;;16.69;49.51
48942;BME280;35340;52.378;4.648;2023-02-28T03:59:34;103249.22;;;16.70;49.29
48942;BME280;35340;52.378;4.648;2023-02-28T04:02:01;103253.56;;;16.71;49.26
48942;BME280;35340;52.378;4.648;2023-02-28T04:04:28;103257.03;;;16.72;49.10
48942;BME280;35340;52.378;4.648;2023-02-28T04:07:01;103249.25;;;16.72;49.30
48942;BME280;35340;52.378;4.648;2023-02-28T04:09:28;103244.00;;;16.70;49.30
48942;BME280;35340;52.378;4.648;2023-02-28T04:11:53;103243.16;;;16.71;49.48
48942;BME280;35340;52.378;4.648;2023-02-28T04:14:21;103237.09;;;16.71;49.19
48942;BME280;35340;52.378;4.648;2023-02-28T04:16:47;103230.09;;;16.70;49.20
48942;BME280;35340;52.378;4.648;2023-02-28T04:19:13;103232.75;;;16.71;49.33
48942;BME280;35340;52.378;4.648;2023-02-28T04:21:41;103240.63;;;16.73;49.16
48942;BME280;35340;52.378;4.648;2023-02-28T04:24:09;103240.63;;;16.73;49.08
48942;BME280;35340;52.378;4.648;2023-02-28T04:26:39;103236.31;;;16.73;48.99
48942;BME280;35340;52.378;4.648;2023-02-28T04:29:05;103235.44;;;16.73;49.06
48942;BME280;35340;52.378;4.648;2023-02-28T04:31:31;103235.44;;;16.73;49.06
48942;BME280;35340;52.378;4.648;2023-02-28T04:34:00;103231.97;;;16.74;49.07
48942;BME280;35340;52.378;4.648;2023-02-28T04:36:26;103231.09;;;16.73;49.17
48942;BME280;35340;52.378;4.648;2023-02-28T04:38:52;103237.13;;;16.72;49.13
48942;BME280;35340;52.378;4.648;2023-02-28T04:41:19;103229.28;;;16.71;49.14
48942;BME280;35340;52.378;4.648;2023-02-28T04:43:44;103235.38;;;16.71;49.38
48942;BME280;35340;52.378;4.648;2023-02-28T04:46:10;103235.38;;;16.71;49.13
48942;BME280;35340;52.378;4.648;2023-02-28T04:48:37;103237.97;;;16.71;48.95
48942;BME280;35340;52.378;4.648;2023-02-28T04:51:08;103236.22;;;16.70;48.83
48942;BME280;35340;52.378;4.648;2023-02-28T04:53:34;103235.38;;;16.71;49.25
48942;BME280;35340;52.378;4.648;2023-02-28T04:56:01;103231.88;;;16.71;49.23
48942;BME280;35340;52.378;4.648;2023-02-28T04:58:30;103231.88;;;16.71;49.25
48942;BME280;35340;52.378;4.648;2023-02-28T05:01:04;103235.31;;;16.70;49.25
48942;BME280;35340;52.378;4.648;2023-02-28T05:03:29;103233.63;;;16.70;49.21
48942;BME280;35340;52.378;4.648;2023-02-28T05:05:55;103240.56;;;16.71;49.33
48942;BME280;35340;52.378;4.648;2023-02-28T05:08:20;103238.03;;;16.73;49.17
48942;BME280;35340;52.378;4.648;2023-02-28T05:10:45;103231.88;;;16.71;49.41
48942;BME280;35340;52.378;4.648;2023-02-28T05:13:12;103236.31;;;16.73;49.19
48942;BME280;35340;52.378;4.648;2023-02-28T05:15:37;103234.50;;;16.72;49.09
48942;BME280;35340;52.378;4.648;2023-02-28T05:18:03;103234.50;;;16.72;49.37
48942;BME280;35340;52.378;4.648;2023-02-28T05:20:28;103232.81;;;16.73;48.96
48942;BME280;35340;52.378;4.648;2023-02-28T05:22:54;103239.84;;;16.75;49.02
48942;BME280;35340;52.378;4.648;2023-02-28T05:25:30;103240.72;;;16.76;49.31
48942;BME280;35340;52.378;4.648;2023-02-28T05:27:56;103233.75;;;16.75;49.15
48942;BME280;35340;52.378;4.648;2023-02-28T05:33:43;103226.84;;;16.75;49.12
48942;BME280;35340;52.378;4.648;2023-02-28T05:36:09;103234.69;;;16.77;48.98
48942;BME280;35340;52.378;4.648;2023-02-28T05:38:48;103245.97;;;16.77;49.32
48942;BME280;35340;52.378;4.648;2023-02-28T05:44:21;103244.25;;;16.78;49.00
48942;BME280;35340;52.378;4.648;2023-02-28T05:46:46;103249.44;;;16.78;49.02
48942;BME280;35340;52.378;4.648;2023-02-28T05:49:12;103247.81;;;16.80;49.20
48942;BME280;35340;52.378;4.648;2023-02-28T05:51:37;103247.72;;;16.78;49.01
48942;BME280;35340;52.378;4.648;2023-02-28T05:54:05;103246.84;;;16.78;49.01
48942;BME280;35340;52.378;4.648;2023-02-28T05:56:31;103247.81;;;16.80;49.23
48942;BME280;35340;52.378;4.648;2023-02-28T05:58:57;103243.44;;;16.79;49.36
48942;BME280;35340;52.378;4.648;2023-02-28T06:01:43;103252.09;;;16.79;48.91
48942;BME280;35340;52.378;4.648;2023-02-28T06:04:17;103244.38;;;16.81;48.90
48942;BME280;35340;52.378;4.648;2023-02-28T06:06:46;103246.09;;;16.80;49.07
48942;BME280;35340;52.378;4.648;2023-02-28T06:09:14;103249.56;;;16.81;48.95
48942;BME280;35340;52.378;4.648;2023-02-28T06:15:02;103240.09;;;16.83;49.13
48942;BME280;35340;52.378;4.648;2023-02-28T06:17:28;103242.75;;;16.84;48.79
48942;BME280;35340;52.378;4.648;2023-02-28T06:19:53;103243.63;;;16.85;48.82
48942;BME280;35340;52.378;4.648;2023-02-28T06:22:19;103236.69;;;16.84;48.98
48942;BME280;35340;52.378;4.648;2023-02-28T06:24:44;103237.63;;;16.86;48.97
48942;BME280;35340;52.378;4.648;2023-02-28T06:27:09;103245.47;;;16.88;49.00
48942;BME280;35340;52.378;4.648;2023-02-28T06:29:35;103241.03;;;16.85;48.79
48942;BME280;35340;52.378;4.648;2023-02-28T06:32:01;103241.97;;;16.87;49.10
48942;BME280;35340;52.378;4.648;2023-02-28T06:34:27;103249.75;;;16.87;48.79
48942;BME280;35340;52.378;4.648;2023-02-28T06:36:52;103250.69;;;16.88;48.92
48942;BME280;35340;52.378;4.648;2023-02-28T06:39:18;103247.16;;;16.87;48.95
48942;BME280;35340;52.378;4.648;2023-02-28T06:41:44;103251.56;;;16.88;48.93
48942;BME280;35340;52.378;4.648;2023-02-28T06:44:15;103256.69;;;16.86;48.82
48942;BME280;35340;52.378;4.648;2023-02-28T06:46:43;103262.75;;;16.85;48.89
48942;BME280;35340;52.378;4.648;2023-02-28T06:49:12;103258.34;;;16.84;48.97
48942;BME280;35340;52.378;4.648;2023-02-28T06:51:43;103259.22;;;16.85;49.00
48942;BME280;35340;52.378;4.648;2023-02-28T06:54:12;103256.16;;;16.97;49.26
48942;BME280;35340;52.378;4.648;2023-02-28T06:56:37;103264.97;;;17.02;48.93
48942;BME280;35340;52.378;4.648;2023-02-28T06:59:03;103272.84;;;17.03;49.10
48942;BME280;35340;52.378;4.648;2023-02-28T07:01:29;103277.16;;;17.03;49.05
48942;BME280;35340;52.378;4.648;2023-02-28T07:03:56;103280.59;;;17.02;49.35
48942;BME280;35340;52.378;4.648;2023-02-28T07:06:22;103280.66;;;17.03;49.06
48942;BME280;35340;52.378;4.648;2023-02-28T07:08:49;103282.41;;;17.04;49.12
48942;BME280;35340;52.378;4.648;2023-02-28T07:11:15;103285.00;;;17.04;49.39
48942;BME280;35340;52.378;4.648;2023-02-28T07:13:40;103287.59;;;17.04;49.04
48942;BME280;35340;52.378;4.648;2023-02-28T07:16:07;103285.06;;;17.06;49.12
48942;BME280;35340;52.378;4.648;2023-02-28T07:18:35;103289.41;;;17.07;49.22
48942;BME280;35340;52.378;4.648;2023-02-28T07:21:07;103287.59;;;17.04;49.22
48942;BME280;35340;52.378;4.648;2023-02-28T07:23:34;103283.31;;;17.05;49.17
48942;BME280;35340;52.378;4.648;2023-02-28T07:25:59;103276.31;;;17.04;48.92
48942;BME280;35340;52.378;4.648;2023-02-28T07:28:25;103278.09;;;17.05;48.89
48942;BME280;35340;52.378;4.648;2023-02-28T07:30:50;103281.56;;;17.05;49.12
48942;BME280;35340;52.378;4.648;2023-02-28T07:33:16;103280.72;;;17.06;49.03
48942;BME280;35340;52.378;4.648;2023-02-28T07:35:42;103287.66;;;17.06;49.06
48942;BME280;35340;52.378;4.648;2023-02-28T07:38:07;103291.13;;;17.06;49.05
48942;BME280;35340;52.378;4.648;2023-02-28T07:40:34;103288.50;;;17.05;48.85
48942;BME280;35340;52.378;4.648;2023-02-28T07:43:00;103289.38;;;17.05;48.93
48942;BME280;35340;52.378;4.648;2023-02-28T07:45:26;103292.84;;;17.06;49.03
48942;BME280;35340;52.378;4.648;2023-02-28T07:47:54;103293.72;;;17.06;48.99
48942;BME280;35340;52.378;4.648;2023-02-28T07:50:19;103295.53;;;17.08;48.86
48942;BME280;35340;52.378;4.648;2023-02-28T07:52:45;103288.59;;;17.08;49.19
48942;BME280;35340;52.378;4.648;2023-02-28T07:55:10;103294.66;;;17.09;48.69
48942;BME280;35340;52.378;4.648;2023-02-28T07:57:36;103292.91;;;17.08;48.89
48942;BME280;35340;52.378;4.648;2023-02-28T08:00:07;103300.72;;;17.08;48.88
48942;BME280;35340;52.378;4.648;2023-02-28T08:02:34;103303.31;;;17.08;48.84
48942;BME280;35340;52.378;4.648;2023-02-28T08:04:59;103304.19;;;17.08;48.54
48942;BME280;35340;52.378;4.648;2023-02-28T08:07:25;103313.75;;;17.09;48.97
48942;BME280;35340;52.378;4.648;2023-02-28T08:09:50;103307.69;;;17.09;48.59
48942;BME280;35340;52.378;4.648;2023-02-28T08:12:16;103315.47;;;17.09;48.87
48942;BME280;35340;52.378;4.648;2023-02-28T08:14:41;103317.25;;;17.10;48.51
48942;BME280;35340;52.378;4.648;2023-02-28T08:17:06;103319.88;;;17.10;49.01
48942;BME280;35340;52.378;4.648;2023-02-28T08:19:32;103313.75;;;17.09;48.81
48942;BME280;35340;52.378;4.648;2023-02-28T08:21:58;103313.81;;;17.11;48.86
48942;BME280;35340;52.378;4.648;2023-02-28T08:24:23;103313.81;;;17.11;48.75
48942;BME280;35340;52.378;4.648;2023-02-28T08:26:49;103313.75;;;17.09;48.57
48942;BME280;35340;52.378;4.648;2023-02-28T08:29:22;103306.88;;;17.11;48.72
48942;BME280;35340;52.378;4.648;2023-02-28T08:31:47;103308.66;;;17.12;48.93
48942;BME280;35340;52.378;4.648;2023-02-28T08:34:14;103299.13;;;17.13;48.74
48942;BME280;35340;52.378;4.648;2023-02-28T08:36:40;103297.41;;;17.13;48.53
48942;BME280;35340;52.378;4.648;2023-02-28T08:39:07;103306.94;;;17.13;48.33
48942;BME280;35340;52.378;4.648;2023-02-28T08:41:32;103312.16;;;17.13;48.44
48942;BME280;35340;52.378;4.648;2023-02-28T08:43:58;103312.16;;;17.13;48.47
48942;BME280;35340;52.378;4.648;2023-02-28T08:46:24;103308.72;;;17.14;48.71
48942;BME280;35340;52.378;4.648;2023-02-28T08:48:54;103306.94;;;17.13;48.36
48942;BME280;35340;52.378;4.648;2023-02-28T08:51:21;103310.41;;;17.12;48.35
48942;BME280;35340;52.378;4.648;2023-02-28T08:53:52;103307.78;;;17.12;48.40
48942;BME280;35340;52.378;4.648;2023-02-28T08:56:18;103309.47;;;17.11;48.31
48942;BME280;35340;52.378;4.648;2023-02-28T08:58:44;103305.19;;;17.12;48.24
48942;BME280;35340;52.378;4.648;2023-02-28T09:01:19;103312.16;;;17.13;48.43
48942;BME280;35340;52.378;4.648;2023-02-28T09:03:47;103314.75;;;17.13;48.48
48942;BME280;35340;52.378;4.648;2023-02-28T09:06:13;103312.16;;;17.13;48.27
48942;BME280;35340;52.378;4.648;2023-02-28T09:08:40;103315.63;;;17.13;48.28
48942;BME280;35340;52.378;4.648;2023-02-28T09:11:06;103321.75;;;17.14;48.46
48942;BME280;35340;52.378;4.648;2023-02-28T09:13:31;103323.50;;;17.15;48.39
48942;BME280;35340;52.378;4.648;2023-02-28T09:15:58;103330.41;;;17.14;48.29
48942;BME280;35340;52.378;4.648;2023-02-28T09:18:24;103325.22;;;17.14;48.17
48942;BME280;35340;52.378;4.648;2023-02-28T09:20:50;103319.13;;;17.14;48.37
48942;BME280;35340;52.378;4.648;2023-02-28T09:23:15;103314.81;;;17.14;48.37
48942;BME280;35340;52.378;4.648;2023-02-28T09:25:50;103308.81;;;17.17;48.19
48942;BME280;35340;52.378;4.648;2023-02-28T09:28:16;103312.34;;;17.19;48.17
48942;BME280;35340;52.378;4.648;2023-02-28T09:30:45;103305.41;;;17.19;48.27
48942;BME280;35340;52.378;4.648;2023-02-28T09:33:11;103308.06;;;17.21;48.26
48942;BME280;35340;52.378;4.648;2023-02-28T09:35:36;103307.22;;;17.22;47.89
48942;BME280;35340;52.378;4.648;2023-02-28T09:38:03;103315.03;;;17.22;48.02
48942;BME280;35340;52.378;4.648;2023-02-28T09:40:28;103314.25;;;17.24;48.02
48942;BME280;35340;52.378;4.648;2023-02-28T09:42:56;103317.75;;;17.25;48.05
48942;BME280;35340;52.378;4.648;2023-02-28T09:45:23;103313.41;;;17.25;47.98
48942;BME280;35340;52.378;4.648;2023-02-28T09:47:52;103316.91;;;17.26;47.97
48942;BME280;35340;52.378;4.648;2023-02-28T09:52:55;103325.91;;;17.36;47.67
48942;BME280;35340;52.378;4.648;2023-02-28T09:55:42;103328.38;;;17.33;47.74
48942;BME280;35340;52.378;4.648;2023-02-28T09:58:24;103326.56;;;17.30;47.95
48942;BME280;35340;52.378;4.648;2023-02-28T10:01:05;103331.78;;;17.30;48.01
48942;BME280;35340;52.378;4.648;2023-02-28T10:03:39;103329.19;;;17.30;47.99
48942;BME280;35340;52.378;4.648;2023-02-28T10:08:38;103326.63;;;17.32;47.99
48942;BME280;35340;52.378;4.648;2023-02-28T10:11:09;103314.50;;;17.32;48.02
48942;BME280;35340;52.378;4.648;2023-02-28T10:18:46;103319.75;;;17.34;48.07
48942;BME280;35340;52.378;4.648;2023-02-28T10:21:21;103315.47;;;17.36;47.82
48942;BME280;35340;52.378;4.648;2023-02-28T10:23:49;103332.78;;;17.34;47.92
48942;BME280;35340;52.378;4.648;2023-02-28T10:26:18;103335.31;;;17.32;47.92
48942;BME280;35340;52.378;4.648;2023-02-28T10:28:43;103325.84;;;17.34;47.92
48942;BME280;35340;52.378;4.648;2023-02-28T10:31:17;103316.41;;;17.38;47.86
48942;BME280;35340;52.378;4.648;2023-02-28T10:33:43;103312.97;;;17.39;47.83
48942;BME280;35340;52.378;4.648;2023-02-28T10:36:14;103313.03;;;17.42;47.55
48942;BME280;35340;52.378;4.648;2023-02-28T10:38:40;103315.63;;;17.42;47.78
48942;BME280;35340;52.378;4.648;2023-02-28T10:41:06;103327.75;;;17.40;47.71
48942;BME280;35340;52.378;4.648;2023-02-28T10:43:33;103321.63;;;17.38;47.92
48942;BME280;35340;52.378;4.648;2023-02-28T10:46:02;103332.91;;;17.38;47.93
48942;BME280;35340;52.378;4.648;2023-02-28T10:48:36;103323.31;;;17.37;47.73
48942;BME280;35340;52.378;4.648;2023-02-28T10:51:04;103322.56;;;17.40;47.72
48942;BME280;35340;52.378;4.648;2023-02-28T10:53:31;103320.97;;;17.45;47.64
48942;BME280;35340;52.378;4.648;2023-02-28T10:58:53;103328.81;;;17.46;47.64
48942;BME280;35340;52.378;4.648;2023-02-28T11:01:44;103326.22;;;17.46;47.65
48942;BME280;35340;52.378;4.648;2023-02-28T11:04:18;103321.94;;;17.48;47.69
48942;BME280;35340;52.378;4.648;2023-02-28T11:06:45;103327.16;;;17.48;47.48
48942;BME280;35340;52.378;4.648;2023-02-28T11:09:39;103324.56;;;17.50;47.58
48942;BME280;35340;52.378;4.648;2023-02-28T11:12:07;103318.56;;;17.53;47.59
48942;BME280;35340;52.378;4.648;2023-02-28T11:14:47;103317.81;;;17.55;47.35
48942;BME280;35340;52.378;4.648;2023-02-28T11:17:28;103319.63;;;17.58;47.15
48942;BME280;35340;52.378;4.648;2023-02-28T11:20:05;103314.47;;;17.61;47.04
48942;BME280;35340;52.378;4.648;2023-02-28T11:22:36;103305.81;;;17.60;47.24
48942;BME280;35340;52.378;4.648;2023-02-28T11:25:23;103304.19;;;17.64;46.88
48942;BME280;35340;52.378;4.648;2023-02-28T11:27:54;103305.13;;;17.66;46.98
48942;BME280;35340;52.378;4.648;2023-02-28T11:33:01;103308.59;;;17.66;46.96
48942;BME280;35340;52.378;4.648;2023-02-28T11:35:33;103307.59;;;17.63;47.17
48942;BME280;35340;52.378;4.648;2023-02-28T11:38:02;103298.19;;;17.66;47.14
48942;BME280;35340;52.378;4.648;2023-02-28T11:45:45;103305.25;;;17.72;47.03
48942;BME280;35340;52.378;4.648;2023-02-28T11:51:21;103292.38;;;17.77;46.85
48942;BME280;35340;52.378;4.648;2023-02-28T11:57:14;103297.56;;;17.77;46.87
48942;BME280;35340;52.378;4.648;2023-02-28T12:02:31;103288.22;;;17.82;46.98
48942;BME280;35340;52.378;4.648;2023-02-28T12:05:29;103289.94;;;17.81;46.67
48942;BME280;35340;52.378;4.648;2023-02-28T12:08:33;103284.72;;;17.81;46.83
48942;BME280;35340;52.378;4.648;2023-02-28T12:28:26;103267.22;;;17.77;47.19
48942;BME280;35340;52.378;4.648;2023-02-28T12:30:58;103263.72;;;17.77;47.19
48942;BME280;35340;52.378;4.648;2023-02-28T12:33:31;103256.81;;;17.77;47.18
48942;BME280;35340;52.378;4.648;2023-02-28T12:36:02;103254.22;;;17.79;47.14
48942;BME280;35340;52.378;4.648;2023-02-28T12:38:37;103247.31;;;17.79;46.89
48942;BME280;35340;52.378;4.648;2023-02-28T12:41:53;103250.03;;;17.82;46.92
48942;BME280;35340;52.378;4.648;2023-02-28T12:44:23;103240.53;;;17.84;46.75
48942;BME280;35340;52.378;4.648;2023-02-28T12:46:55;103245.81;;;17.87;46.59
48942;BME280;35340;52.378;4.648;2023-02-28T12:49:29;103244.25;;;17.93;46.67
48942;BME280;35340;52.378;4.648;2023-02-28T12:51:58;103244.38;;;17.97;46.50
48942;BME280;35340;52.378;4.648;2023-02-28T12:54:49;103244.50;;;18.02;46.56
48942;BME280;35340;52.378;4.648;2023-02-28T12:57:46;103234.88;;;17.99;46.60
48942;BME280;35340;52.378;4.648;2023-02-28T13:00:21;103222.72;;;18.00;46.54
48942;BME280;35340;52.378;4.648;2023-02-28T13:06:32;103232.22;;;17.98;46.31
48942;BME280;35340;52.378;4.648;2023-02-28T13:09:10;103226.13;;;17.97;46.72
48942;BME280;35340;52.378;4.648;2023-02-28T13:11:45;103219.94;;;17.94;46.49
48942;BME280;35340;52.378;4.648;2023-02-28T13:14:28;103220.81;;;17.94;46.53
48942;BME280;35340;52.378;4.648;2023-02-28T13:19:42;103221.69;;;17.93;46.34
48942;BME280;35340;52.378;4.648;2023-02-28T13:22:48;103219.66;;;17.83;46.60
48942;BME280;35340;52.378;4.648;2023-02-28T13:28:01;103219.00;;;17.60;46.87
48942;BME280;35340;52.378;4.648;2023-02-28T13:34:04;103208.34;;;17.52;47.11
48942;BME280;35340;52.378;4.648;2023-02-28T13:38:55;103198.69;;;17.48;46.91
48942;BME280;35340;52.378;4.648;2023-02-28T13:44:22;103215.09;;;17.45;46.73
48942;BME280;35340;52.378;4.648;2023-02-28T13:55:02;103193.97;;;17.65;47.22
48942;BME280;35340;52.378;4.648;2023-02-28T13:57:40;103194.31;;;17.79;47.19
48942;BME280;35340;52.378;4.648;2023-02-28T14:05:33;103188.53;;;17.87;46.86
48942;BME280;35340;52.378;4.648;2023-02-28T14:08:01;103189.44;;;17.88;46.73
48942;BME280;35340;52.378;4.648;2023-02-28T14:10:32;103196.34;;;17.87;46.75
48942;BME280;35340;52.378;4.648;2023-02-28T14:15:41;103187.69;;;17.88;46.65
48942;BME280;35340;52.378;4.648;2023-02-28T14:18:37;103182.44;;;17.87;46.31
48942;BME280;35340;52.378;4.648;2023-02-28T14:21:29;103184.16;;;17.86;46.41
48942;BME280;35340;52.378;4.648;2023-02-28T14:27:15;103176.31;;;17.85;46.45
48942;BME280;35340;52.378;4.648;2023-02-28T14:32:43;103182.38;;;17.84;46.43
48942;BME280;35340;52.378;4.648;2023-02-28T14:37:46;103188.44;;;17.84;46.23
48942;BME280;35340;52.378;4.648;2023-02-28T14:40:39;103177.09;;;17.82;46.45
48942;BME280;35340;52.378;4.648;2023-02-28T14:43:16;103178.84;;;17.82;46.35
48942;BME280;35340;52.378;4.648;2023-02-28T14:45:43;103173.53;;;17.80;46.12
48942;BME280;35340;52.378;4.648;2023-02-28T14:48:09;103172.72;;;17.81;46.35
48942;BME280;35340;52.378;4.648;2023-02-28T14:50:37;103164.81;;;17.78;46.12
48942;BME280;35340;52.378;4.648;2023-02-28T14:53:03;103174.34;;;17.78;46.24
48942;BME280;35340;52.378;4.648;2023-02-28T14:55:34;103174.34;;;17.78;45.98
48942;BME280;35340;52.378;4.648;2023-02-28T14:58:03;103177.78;;;17.77;46.13
48942;BME280;35340;52.378;4.648;2023-02-28T15:00:33;103182.09;;;17.75;45.98
48942;BME280;35340;52.378;4.648;2023-02-28T15:03:01;103182.13;;;17.76;46.17
48942;BME280;35340;52.378;4.648;2023-02-28T15:05:29;103183.00;;;17.77;46.02
48942;BME280;35340;52.378;4.648;2023-02-28T15:08:25;103181.25;;;17.76;45.90
48942;BME280;35340;52.378;4.648;2023-02-28T15:11:16;103180.38;;;17.75;46.28
48942;BME280;35340;52.378;4.648;2023-02-28T15:13:49;103171.63;;;17.73;46.27
48942;BME280;35340;52.378;4.648;2023-02-28T15:16:19;103183.84;;;17.76;45.89
48942;BME280;35340;52.378;4.648;2023-02-28T15:21:23;103169.19;;;17.79;46.07
48942;BME280;35340;52.378;4.648;2023-02-28T15:24:10;103183.97;;;17.80;46.00
48942;BME280;35340;52.378;4.648;2023-02-28T15:26:43;103178.75;;;17.80;46.02
48942;BME280;35340;52.378;4.648;2023-02-28T15:29:20;103176.22;;;17.82;45.72
48942;BME280;35340;52.378;4.648;2023-02-28T15:31:55;103176.31;;;17.85;45.66
48942;BME280;35340;52.378;4.648;2023-02-28T15:36:58;103180.63;;;17.84;45.67
48942;BME280;35340;52.378;4.648;2023-02-28T15:39:26;103184.16;;;17.86;45.84
48942;BME280;35340;52.378;4.648;2023-02-28T15:42:19;103183.31;;;17.87;45.65
48942;BME280;35340;52.378;4.648;2023-02-28T15:44:45;103174.63;;;17.87;45.64
48942;BME280;35340;52.378;4.648;2023-02-28T15:47:25;103186.84;;;17.89;45.49
48942;BME280;35340;52.378;4.648;2023-02-28T15:49:57;103180.72;;;17.87;45.70
48942;BME280;35340;52.378;4.648;2023-02-28T15:52:44;103183.34;;;17.89;45.59